This is the latest recevied weather packets stored in our database for station/object F5ODK-12. If no packets are shown the sender has not sent any weather packets the latest 10 day(s).
| Time | Temp. | Humidity | Pressure | Rain* | Wind** | Luminosity | Snow |
|---|---|---|---|---|---|---|---|
| 1777979608 | 17.22° C | 65% | 1012.7 hPa | - | - | - | - |
| 1777979006 | 18.33° C | 64% | 1012.7 hPa | - | - | - | - |
| 1777978706 | 19.44° C | 63% | 1012.5 hPa | - | - | - | - |
| 1777978405 | 20.56° C | 63% | 1012.5 hPa | - | - | - | - |
| 1777977503 | 26.11° C | 59% | 1012.4 hPa | - | - | - | - |
| 1777977202 | 24.44° C | 63% | 1012.3 hPa | - | - | - | - |
| 1777976601 | 18.33° C | 68% | 1012.6 hPa | - | - | - | - |
| 1777976300 | 16.67° C | 68% | 1012.6 hPa | - | - | - | - |
| 1777976000 | 16.67° C | 66% | 1012.7 hPa | - | - | - | - |
| 1777975698 | 17.22° C | 67% | 1012.7 hPa | - | - | - | - |
| 1777975398 | 17.22° C | 67% | 1012.6 hPa | - | - | - | - |
| 1777975097 | 17.78° C | 67% | 1012.6 hPa | - | - | - | - |
| 1777974796 | 17.78° C | 67% | 1012.4 hPa | - | - | - | - |
| 1777974496 | 17.78° C | 67% | 1012.5 hPa | - | - | - | - |
| 1777973894 | 16.67° C | 68% | 1012.5 hPa | - | - | - | - |
| 1777973593 | 15.56° C | 68% | 1012.5 hPa | - | - | - | - |
| 1777973293 | 16.11° C | 67% | 1012.6 hPa | - | - | - | - |
| 1777972991 | 15.56° C | 68% | 1012.6 hPa | - | - | - | - |
| 1777972691 | 15.56° C | 68% | 1012.5 hPa | - | - | - | - |
| 1777972390 | 15.56° C | 68% | 1012.5 hPa | - | - | - | - |
| 1777972090 | 15.56° C | 68% | 1012.5 hPa | - | - | - | - |
| 1777971789 | 15.56° C | 69% | 1012.4 hPa | - | - | - | - |
| 1777971488 | 15.56° C | 68% | 1012.4 hPa | - | - | - | - |
| 1777971187 | 15.56° C | 69% | 1012.3 hPa | - | - | - | - |
| 1777970285 | 15.56° C | 69% | 1012.2 hPa | - | - | - | - |
* Rain since midnight (hover to see other rain measurements)
** Current wind speed in m/s (hover to see current wind gust speed)